Rechercher aéroport 
image banner adimage banner adimage banner ad
image banner ad

7CA3 - Mercy Medical Center

Situé à Redding, United States

ICAO - 7CA3, IATA -

Données fournies par Airmate  

Information générale

Coordonnées: N40°34'20" W122°23'48"
Élévation : 715 feet MSL.
Variation magnétique : 17° East
Voir autres Aéroports à California

Données opérationnelles

Special qualification required
Heure actuelle UTC:
Heure actuelle locale:
Météo à : KRDD - Redding Muni ( 11 km )
METAR: KRDD 251053Z AUTO 00000KT 10SM FU CLR 21/09 A2987 RMK AO2 SLP109 T02110089
TAF: KRDD 250533Z 2506/2606 VRB03KT P6SM SKC FM251500 VRB04KT 4SM FU HZ FEW150 FM252100 18008KT P6SM SCT150 BKN250
Voir NOTAMs / SUP AIP / TFR affectant cet aéroport [VIEW]
Fréquences de communication: [VIEW]

Pistes:

Coordonnées de l'aéroport

Adresse: Redding United States

Vue satellite de 7CA3